<?xml version="1.0" encoding="UTF-8" standalone="no" ?>
<gpx xmlns="http://www.topografix.com/GPX/1/1" xmlns:xsi="http://www.w3.org/2001/XMLSchema-instance" xsi:schemaLocation="http://www.topografix.com/GPX/1/1 http://www.topografix.com/GPX/1/1/gpx.xsd" version="1.1" creator="VisuGPX - https://www.visugpx.com">
  <metadata>
    <name>2022-05-27 Hautecour- lac du Saut</name>
  </metadata>
  <trk>
    <name><![CDATA[2022-05-27 16:31:07]]></name>
    <trkseg>
      <trkpt lat="45.50601" lon="6.54445">
        <ele>1093.83</ele>
        <time>2022-05-27T06:17:49Z</time>
      </trkpt>
      <trkpt lat="45.5064" lon="6.54529">
        <ele>1097.79</ele>
        <time>2022-05-27T06:22:49Z</time>
      </trkpt>
      <trkpt lat="45.5071" lon="6.54619">
        <ele>1104.41</ele>
        <time>2022-05-27T06:24:26Z</time>
      </trkpt>
      <trkpt lat="45.50772" lon="6.54714">
        <ele>1110.48</ele>
        <time>2022-05-27T06:26:18Z</time>
      </trkpt>
      <trkpt lat="45.50824" lon="6.54813">
        <ele>1121.01</ele>
        <time>2022-05-27T06:29:37Z</time>
      </trkpt>
      <trkpt lat="45.50896" lon="6.54901">
        <ele>1134.71</ele>
        <time>2022-05-27T06:32:33Z</time>
      </trkpt>
      <trkpt lat="45.50955" lon="6.5501">
        <ele>1147.1</ele>
        <time>2022-05-27T06:35:33Z</time>
      </trkpt>
      <trkpt lat="45.5099" lon="6.55091">
        <ele>1159.73</ele>
        <time>2022-05-27T06:39:33Z</time>
      </trkpt>
      <trkpt lat="45.51067" lon="6.55119">
        <ele>1175.24</ele>
        <time>2022-05-27T06:42:39Z</time>
      </trkpt>
      <trkpt lat="45.51145" lon="6.55138">
        <ele>1182.35</ele>
        <time>2022-05-27T06:45:45Z</time>
      </trkpt>
      <trkpt lat="45.5123" lon="6.55138">
        <ele>1191.74</ele>
        <time>2022-05-27T06:48:59Z</time>
      </trkpt>
      <trkpt lat="45.5127" lon="6.55059">
        <ele>1204.22</ele>
        <time>2022-05-27T06:55:31Z</time>
      </trkpt>
      <trkpt lat="45.5136" lon="6.55054">
        <ele>1219</ele>
        <time>2022-05-27T06:58:05Z</time>
      </trkpt>
      <trkpt lat="45.51387" lon="6.551">
        <ele>1233</ele>
        <time>2022-05-27T07:00:58Z</time>
      </trkpt>
      <trkpt lat="45.51436" lon="6.55121">
        <ele>1234.27</ele>
        <time>2022-05-27T07:04:24Z</time>
      </trkpt>
      <trkpt lat="45.51475" lon="6.55">
        <ele>1243.12</ele>
        <time>2022-05-27T07:07:56Z</time>
      </trkpt>
      <trkpt lat="45.51467" lon="6.54872">
        <ele>1252.13</ele>
        <time>2022-05-27T07:10:22Z</time>
      </trkpt>
      <trkpt lat="45.51445" lon="6.54755">
        <ele>1259.35</ele>
        <time>2022-05-27T07:13:21Z</time>
      </trkpt>
      <trkpt lat="45.51421" lon="6.54625">
        <ele>1268.47</ele>
        <time>2022-05-27T07:15:34Z</time>
      </trkpt>
      <trkpt lat="45.51357" lon="6.54512">
        <ele>1279.01</ele>
        <time>2022-05-27T07:18:39Z</time>
      </trkpt>
      <trkpt lat="45.5133" lon="6.54377">
        <ele>1287.91</ele>
        <time>2022-05-27T07:22:02Z</time>
      </trkpt>
      <trkpt lat="45.5132" lon="6.54233">
        <ele>1299.46</ele>
        <time>2022-05-27T07:23:54Z</time>
      </trkpt>
      <trkpt lat="45.51339" lon="6.54104">
        <ele>1304.79</ele>
        <time>2022-05-27T07:28:09Z</time>
      </trkpt>
      <trkpt lat="45.51372" lon="6.53994">
        <ele>1313.09</ele>
        <time>2022-05-27T07:30:30Z</time>
      </trkpt>
      <trkpt lat="45.51411" lon="6.53987">
        <ele>1326.77</ele>
        <time>2022-05-27T07:33:03Z</time>
      </trkpt>
      <trkpt lat="45.5149" lon="6.54011">
        <ele>1345.31</ele>
        <time>2022-05-27T07:35:19Z</time>
      </trkpt>
      <trkpt lat="45.51528" lon="6.54137">
        <ele>1367.31</ele>
        <time>2022-05-27T07:38:27Z</time>
      </trkpt>
      <trkpt lat="45.51547" lon="6.54273">
        <ele>1383.3</ele>
        <time>2022-05-27T07:41:28Z</time>
      </trkpt>
      <trkpt lat="45.51612" lon="6.54387">
        <ele>1406.8</ele>
        <time>2022-05-27T07:44:10Z</time>
      </trkpt>
      <trkpt lat="45.51687" lon="6.54472">
        <ele>1430.83</ele>
        <time>2022-05-27T07:46:56Z</time>
      </trkpt>
      <trkpt lat="45.51742" lon="6.54565">
        <ele>1451.37</ele>
        <time>2022-05-27T07:49:59Z</time>
      </trkpt>
      <trkpt lat="45.51825" lon="6.54612">
        <ele>1466.77</ele>
        <time>2022-05-27T07:55:09Z</time>
      </trkpt>
      <trkpt lat="45.51924" lon="6.54663">
        <ele>1489.71</ele>
        <time>2022-05-27T07:58:01Z</time>
      </trkpt>
      <trkpt lat="45.5197" lon="6.54649">
        <ele>1500.41</ele>
        <time>2022-05-27T08:04:50Z</time>
      </trkpt>
      <trkpt lat="45.52048" lon="6.54582">
        <ele>1514.44</ele>
        <time>2022-05-27T08:06:37Z</time>
      </trkpt>
      <trkpt lat="45.52119" lon="6.54511">
        <ele>1533.75</ele>
        <time>2022-05-27T08:09:14Z</time>
      </trkpt>
      <trkpt lat="45.52154" lon="6.54435">
        <ele>1547.44</ele>
        <time>2022-05-27T08:11:12Z</time>
      </trkpt>
      <trkpt lat="45.52158" lon="6.54376">
        <ele>1554.11</ele>
        <time>2022-05-27T08:16:59Z</time>
      </trkpt>
      <trkpt lat="45.52264" lon="6.54399">
        <ele>1572.98</ele>
        <time>2022-05-27T08:19:31Z</time>
      </trkpt>
      <trkpt lat="45.5236" lon="6.54418">
        <ele>1593.9</ele>
        <time>2022-05-27T08:22:28Z</time>
      </trkpt>
      <trkpt lat="45.52444" lon="6.54472">
        <ele>1611.46</ele>
        <time>2022-05-27T08:27:39Z</time>
      </trkpt>
      <trkpt lat="45.52515" lon="6.5456">
        <ele>1627.44</ele>
        <time>2022-05-27T08:29:29Z</time>
      </trkpt>
      <trkpt lat="45.52599" lon="6.54638">
        <ele>1649.71</ele>
        <time>2022-05-27T08:31:51Z</time>
      </trkpt>
      <trkpt lat="45.5269" lon="6.54691">
        <ele>1671.31</ele>
        <time>2022-05-27T08:34:10Z</time>
      </trkpt>
      <trkpt lat="45.52777" lon="6.54745">
        <ele>1695.23</ele>
        <time>2022-05-27T08:36:51Z</time>
      </trkpt>
      <trkpt lat="45.52852" lon="6.54827">
        <ele>1722.18</ele>
        <time>2022-05-27T08:40:15Z</time>
      </trkpt>
      <trkpt lat="45.52885" lon="6.54938">
        <ele>1737.32</ele>
        <time>2022-05-27T08:42:27Z</time>
      </trkpt>
      <trkpt lat="45.5295" lon="6.55026">
        <ele>1747.59</ele>
        <time>2022-05-27T08:54:05Z</time>
      </trkpt>
      <trkpt lat="45.53041" lon="6.55038">
        <ele>1756.26</ele>
        <time>2022-05-27T08:55:48Z</time>
      </trkpt>
      <trkpt lat="45.5311" lon="6.55108">
        <ele>1765.25</ele>
        <time>2022-05-27T08:57:29Z</time>
      </trkpt>
      <trkpt lat="45.53134" lon="6.55022">
        <ele>1773.79</ele>
        <time>2022-05-27T08:59:07Z</time>
      </trkpt>
      <trkpt lat="45.53129" lon="6.54925">
        <ele>1781.05</ele>
        <time>2022-05-27T09:00:55Z</time>
      </trkpt>
      <trkpt lat="45.53183" lon="6.55026">
        <ele>1789.36</ele>
        <time>2022-05-27T09:02:43Z</time>
      </trkpt>
      <trkpt lat="45.53252" lon="6.55109">
        <ele>1795.58</ele>
        <time>2022-05-27T09:04:32Z</time>
      </trkpt>
      <trkpt lat="45.5333" lon="6.55174">
        <ele>1802.89</ele>
        <time>2022-05-27T09:06:37Z</time>
      </trkpt>
      <trkpt lat="45.53388" lon="6.55264">
        <ele>1814.96</ele>
        <time>2022-05-27T09:08:28Z</time>
      </trkpt>
      <trkpt lat="45.53436" lon="6.55371">
        <ele>1828.31</ele>
        <time>2022-05-27T09:10:17Z</time>
      </trkpt>
      <trkpt lat="45.53419" lon="6.55486">
        <ele>1839.13</ele>
        <time>2022-05-27T09:12:24Z</time>
      </trkpt>
      <trkpt lat="45.53468" lon="6.5552">
        <ele>1846.54</ele>
        <time>2022-05-27T09:14:07Z</time>
      </trkpt>
      <trkpt lat="45.53538" lon="6.55473">
        <ele>1854.65</ele>
        <time>2022-05-27T09:16:07Z</time>
      </trkpt>
      <trkpt lat="45.53607" lon="6.55553">
        <ele>1859.08</ele>
        <time>2022-05-27T09:17:41Z</time>
      </trkpt>
      <trkpt lat="45.53641" lon="6.55486">
        <ele>1870.73</ele>
        <time>2022-05-27T09:19:23Z</time>
      </trkpt>
      <trkpt lat="45.53629" lon="6.5536">
        <ele>1882.55</ele>
        <time>2022-05-27T09:21:14Z</time>
      </trkpt>
      <trkpt lat="45.53651" lon="6.55297">
        <ele>1897.71</ele>
        <time>2022-05-27T09:23:42Z</time>
      </trkpt>
      <trkpt lat="45.53733" lon="6.55341">
        <ele>1902.83</ele>
        <time>2022-05-27T09:25:46Z</time>
      </trkpt>
      <trkpt lat="45.53748" lon="6.55227">
        <ele>1909.53</ele>
        <time>2022-05-27T09:27:22Z</time>
      </trkpt>
      <trkpt lat="45.53736" lon="6.55103">
        <ele>1922.61</ele>
        <time>2022-05-27T09:29:37Z</time>
      </trkpt>
      <trkpt lat="45.53813" lon="6.55044">
        <ele>1933.19</ele>
        <time>2022-05-27T09:31:20Z</time>
      </trkpt>
      <trkpt lat="45.53899" lon="6.55065">
        <ele>1951.31</ele>
        <time>2022-05-27T09:34:28Z</time>
      </trkpt>
      <trkpt lat="45.53989" lon="6.55087">
        <ele>1963.07</ele>
        <time>2022-05-27T09:36:44Z</time>
      </trkpt>
      <trkpt lat="45.54078" lon="6.55116">
        <ele>1967.91</ele>
        <time>2022-05-27T09:38:28Z</time>
      </trkpt>
      <trkpt lat="45.54165" lon="6.55137">
        <ele>1979.28</ele>
        <time>2022-05-27T09:40:54Z</time>
      </trkpt>
      <trkpt lat="45.54257" lon="6.55134">
        <ele>1991.35</ele>
        <time>2022-05-27T09:43:14Z</time>
      </trkpt>
      <trkpt lat="45.54246" lon="6.55026">
        <ele>2001.76</ele>
        <time>2022-05-27T09:45:24Z</time>
      </trkpt>
      <trkpt lat="45.5423" lon="6.54905">
        <ele>2012.05</ele>
        <time>2022-05-27T09:47:42Z</time>
      </trkpt>
      <trkpt lat="45.542" lon="6.54796">
        <ele>2019.73</ele>
        <time>2022-05-27T09:50:06Z</time>
      </trkpt>
      <trkpt lat="45.54131" lon="6.54732">
        <ele>2015.73</ele>
        <time>2022-05-27T09:53:14Z</time>
      </trkpt>
      <trkpt lat="45.54048" lon="6.54705">
        <ele>2006.29</ele>
        <time>2022-05-27T09:56:06Z</time>
      </trkpt>
      <trkpt lat="45.53995" lon="6.54712">
        <ele>1996.48</ele>
        <time>2022-05-27T11:26:11Z</time>
      </trkpt>
      <trkpt lat="45.53928" lon="6.54704">
        <ele>1996.81</ele>
        <time>2022-05-27T11:31:39Z</time>
      </trkpt>
      <trkpt lat="45.53876" lon="6.5461">
        <ele>1996.66</ele>
        <time>2022-05-27T11:34:25Z</time>
      </trkpt>
      <trkpt lat="45.53811" lon="6.54526">
        <ele>1992.04</ele>
        <time>2022-05-27T11:36:20Z</time>
      </trkpt>
      <trkpt lat="45.53735" lon="6.54457">
        <ele>1988.12</ele>
        <time>2022-05-27T11:38:24Z</time>
      </trkpt>
      <trkpt lat="45.53665" lon="6.54383">
        <ele>1981.6</ele>
        <time>2022-05-27T11:40:18Z</time>
      </trkpt>
      <trkpt lat="45.53613" lon="6.54287">
        <ele>1974.23</ele>
        <time>2022-05-27T11:42:48Z</time>
      </trkpt>
      <trkpt lat="45.53544" lon="6.54207">
        <ele>1967.46</ele>
        <time>2022-05-27T11:45:02Z</time>
      </trkpt>
      <trkpt lat="45.53463" lon="6.54175">
        <ele>1946.23</ele>
        <time>2022-05-27T11:48:02Z</time>
      </trkpt>
      <trkpt lat="45.53378" lon="6.5422">
        <ele>1932.85</ele>
        <time>2022-05-27T11:50:35Z</time>
      </trkpt>
      <trkpt lat="45.53359" lon="6.5434">
        <ele>1923.74</ele>
        <time>2022-05-27T11:53:23Z</time>
      </trkpt>
      <trkpt lat="45.53275" lon="6.54384">
        <ele>1910.23</ele>
        <time>2022-05-27T11:55:47Z</time>
      </trkpt>
      <trkpt lat="45.53191" lon="6.54401">
        <ele>1886.11</ele>
        <time>2022-05-27T11:58:59Z</time>
      </trkpt>
      <trkpt lat="45.53101" lon="6.54412">
        <ele>1853.07</ele>
        <time>2022-05-27T12:01:38Z</time>
      </trkpt>
      <trkpt lat="45.53015" lon="6.54382">
        <ele>1835.9</ele>
        <time>2022-05-27T12:03:46Z</time>
      </trkpt>
      <trkpt lat="45.52972" lon="6.54485">
        <ele>1825.81</ele>
        <time>2022-05-27T12:06:41Z</time>
      </trkpt>
      <trkpt lat="45.52964" lon="6.54621">
        <ele>1815.5</ele>
        <time>2022-05-27T12:08:25Z</time>
      </trkpt>
      <trkpt lat="45.52989" lon="6.54749">
        <ele>1806.32</ele>
        <time>2022-05-27T12:10:33Z</time>
      </trkpt>
      <trkpt lat="45.5294" lon="6.5473">
        <ele>1799.33</ele>
        <time>2022-05-27T12:12:53Z</time>
      </trkpt>
      <trkpt lat="45.52887" lon="6.54636">
        <ele>1790.4</ele>
        <time>2022-05-27T12:16:12Z</time>
      </trkpt>
      <trkpt lat="45.52847" lon="6.54525">
        <ele>1781.84</ele>
        <time>2022-05-27T12:19:31Z</time>
      </trkpt>
      <trkpt lat="45.52746" lon="6.54474">
        <ele>1772.3</ele>
        <time>2022-05-27T12:22:17Z</time>
      </trkpt>
      <trkpt lat="45.52683" lon="6.54397">
        <ele>1753.05</ele>
        <time>2022-05-27T12:25:29Z</time>
      </trkpt>
      <trkpt lat="45.5264" lon="6.54326">
        <ele>1735.23</ele>
        <time>2022-05-27T12:31:40Z</time>
      </trkpt>
      <trkpt lat="45.52568" lon="6.54378">
        <ele>1701.97</ele>
        <time>2022-05-27T12:34:51Z</time>
      </trkpt>
      <trkpt lat="45.52526" lon="6.5437">
        <ele>1688.21</ele>
        <time>2022-05-27T12:37:17Z</time>
      </trkpt>
      <trkpt lat="45.52445" lon="6.54304">
        <ele>1680.45</ele>
        <time>2022-05-27T12:38:43Z</time>
      </trkpt>
      <trkpt lat="45.52388" lon="6.542">
        <ele>1669.88</ele>
        <time>2022-05-27T12:40:21Z</time>
      </trkpt>
      <trkpt lat="45.52316" lon="6.54132">
        <ele>1661.97</ele>
        <time>2022-05-27T12:41:45Z</time>
      </trkpt>
      <trkpt lat="45.5223" lon="6.54109">
        <ele>1656.77</ele>
        <time>2022-05-27T12:43:08Z</time>
      </trkpt>
      <trkpt lat="45.52137" lon="6.54108">
        <ele>1650.5</ele>
        <time>2022-05-27T12:44:36Z</time>
      </trkpt>
      <trkpt lat="45.52043" lon="6.54089">
        <ele>1640.63</ele>
        <time>2022-05-27T12:46:13Z</time>
      </trkpt>
      <trkpt lat="45.51965" lon="6.54056">
        <ele>1630.64</ele>
        <time>2022-05-27T12:47:54Z</time>
      </trkpt>
      <trkpt lat="45.51963" lon="6.54192">
        <ele>1607.24</ele>
        <time>2022-05-27T12:50:27Z</time>
      </trkpt>
      <trkpt lat="45.5192" lon="6.54312">
        <ele>1595.02</ele>
        <time>2022-05-27T12:53:04Z</time>
      </trkpt>
      <trkpt lat="45.51985" lon="6.54421">
        <ele>1578.36</ele>
        <time>2022-05-27T12:56:05Z</time>
      </trkpt>
      <trkpt lat="45.51979" lon="6.54448">
        <ele>1567.55</ele>
        <time>2022-05-27T12:58:30Z</time>
      </trkpt>
      <trkpt lat="45.51879" lon="6.5441">
        <ele>1557.31</ele>
        <time>2022-05-27T13:00:04Z</time>
      </trkpt>
      <trkpt lat="45.51805" lon="6.54303">
        <ele>1545.22</ele>
        <time>2022-05-27T13:01:59Z</time>
      </trkpt>
      <trkpt lat="45.51761" lon="6.54164">
        <ele>1532.98</ele>
        <time>2022-05-27T13:03:48Z</time>
      </trkpt>
      <trkpt lat="45.51696" lon="6.54038">
        <ele>1521.24</ele>
        <time>2022-05-27T13:05:46Z</time>
      </trkpt>
      <trkpt lat="45.51675" lon="6.53902">
        <ele>1507.87</ele>
        <time>2022-05-27T13:08:20Z</time>
      </trkpt>
      <trkpt lat="45.51625" lon="6.53775">
        <ele>1497.18</ele>
        <time>2022-05-27T13:10:34Z</time>
      </trkpt>
      <trkpt lat="45.51559" lon="6.53683">
        <ele>1484.72</ele>
        <time>2022-05-27T13:13:15Z</time>
      </trkpt>
      <trkpt lat="45.51472" lon="6.53604">
        <ele>1468.8</ele>
        <time>2022-05-27T13:15:10Z</time>
      </trkpt>
      <trkpt lat="45.5138" lon="6.53536">
        <ele>1452.51</ele>
        <time>2022-05-27T13:16:48Z</time>
      </trkpt>
      <trkpt lat="45.51316" lon="6.53521">
        <ele>1438.44</ele>
        <time>2022-05-27T13:18:47Z</time>
      </trkpt>
      <trkpt lat="45.51271" lon="6.53603">
        <ele>1409.2</ele>
        <time>2022-05-27T13:21:33Z</time>
      </trkpt>
      <trkpt lat="45.51161" lon="6.53613">
        <ele>1378.32</ele>
        <time>2022-05-27T13:24:04Z</time>
      </trkpt>
      <trkpt lat="45.51152" lon="6.53772">
        <ele>1350.92</ele>
        <time>2022-05-27T13:26:34Z</time>
      </trkpt>
      <trkpt lat="45.51235" lon="6.53834">
        <ele>1342.17</ele>
        <time>2022-05-27T13:28:25Z</time>
      </trkpt>
      <trkpt lat="45.51316" lon="6.53932">
        <ele>1334.6</ele>
        <time>2022-05-27T13:30:20Z</time>
      </trkpt>
      <trkpt lat="45.51347" lon="6.5396">
        <ele>1332.88</ele>
        <time>2022-05-27T13:38:32Z</time>
      </trkpt>
      <trkpt lat="45.51256" lon="6.54029">
        <ele>1301.76</ele>
        <time>2022-05-27T13:41:38Z</time>
      </trkpt>
      <trkpt lat="45.51202" lon="6.54154">
        <ele>1285.07</ele>
        <time>2022-05-27T13:45:10Z</time>
      </trkpt>
      <trkpt lat="45.51127" lon="6.54216">
        <ele>1255.49</ele>
        <time>2022-05-27T13:48:15Z</time>
      </trkpt>
      <trkpt lat="45.51071" lon="6.541">
        <ele>1253.93</ele>
        <time>2022-05-27T13:50:07Z</time>
      </trkpt>
      <trkpt lat="45.51031" lon="6.53977">
        <ele>1250.49</ele>
        <time>2022-05-27T13:51:57Z</time>
      </trkpt>
      <trkpt lat="45.50974" lon="6.53888">
        <ele>1247.65</ele>
        <time>2022-05-27T13:54:07Z</time>
      </trkpt>
      <trkpt lat="45.50894" lon="6.53832">
        <ele>1244.98</ele>
        <time>2022-05-27T13:56:26Z</time>
      </trkpt>
      <trkpt lat="45.50864" lon="6.53734">
        <ele>1235.71</ele>
        <time>2022-05-27T14:02:57Z</time>
      </trkpt>
      <trkpt lat="45.50827" lon="6.5381">
        <ele>1222.05</ele>
        <time>2022-05-27T14:05:47Z</time>
      </trkpt>
      <trkpt lat="45.50882" lon="6.53936">
        <ele>1206.85</ele>
        <time>2022-05-27T14:08:07Z</time>
      </trkpt>
      <trkpt lat="45.50918" lon="6.54085">
        <ele>1188.73</ele>
        <time>2022-05-27T14:11:18Z</time>
      </trkpt>
      <trkpt lat="45.50833" lon="6.54174">
        <ele>1173.27</ele>
        <time>2022-05-27T14:13:43Z</time>
      </trkpt>
      <trkpt lat="45.50782" lon="6.54238">
        <ele>1177.05</ele>
        <time>2022-05-27T14:16:46Z</time>
      </trkpt>
      <trkpt lat="45.50766" lon="6.54164">
        <ele>1163.55</ele>
        <time>2022-05-27T14:21:22Z</time>
      </trkpt>
      <trkpt lat="45.50739" lon="6.54272">
        <ele>1144.6</ele>
        <time>2022-05-27T14:23:53Z</time>
      </trkpt>
      <trkpt lat="45.50676" lon="6.54345">
        <ele>1125.75</ele>
        <time>2022-05-27T14:26:14Z</time>
      </trkpt>
      <trkpt lat="45.50619" lon="6.54421">
        <ele>1121.48</ele>
        <time>2022-05-27T14:27:53Z</time>
      </trkpt>
      <trkpt lat="45.50602" lon="6.54428">
        <ele>1120.93</ele>
        <time>2022-05-27T14:31:06Z</time>
      </trkpt>
    </trkseg>
  </trk>
</gpx>